sensor_id;sensor_type;location;lat;lon;timestamp;P1;durP1;ratioP1;P2;durP2;ratioP2
10845;SDS011;5476;51.540;7.186;2023-10-08T00:00:22;9.48;;;4.75;;
10845;SDS011;5476;51.540;7.186;2023-10-08T00:03:08;12.82;;;5.38;;
10845;SDS011;5476;51.540;7.186;2023-10-08T00:05:35;7.43;;;5.03;;
10845;SDS011;5476;51.540;7.186;2023-10-08T00:08:04;13.07;;;4.80;;
10845;SDS011;5476;51.540;7.186;2023-10-08T00:10:34;7.38;;;5.00;;
10845;SDS011;5476;51.540;7.186;2023-10-08T00:13:02;6.97;;;4.63;;
10845;SDS011;5476;51.540;7.186;2023-10-08T00:15:32;6.70;;;4.70;;
10845;SDS011;5476;51.540;7.186;2023-10-08T00:18:01;9.52;;;4.72;;
10845;SDS011;5476;51.540;7.186;2023-10-08T00:20:30;10.25;;;5.18;;
10845;SDS011;5476;51.540;7.186;2023-10-08T00:23:00;11.15;;;5.03;;
10845;SDS011;5476;51.540;7.186;2023-10-08T00:25:34;8.75;;;5.15;;
10845;SDS011;5476;51.540;7.186;2023-10-08T00:28:05;6.25;;;4.63;;
10845;SDS011;5476;51.540;7.186;2023-10-08T00:30:35;8.60;;;5.10;;
10845;SDS011;5476;51.540;7.186;2023-10-08T00:33:04;8.30;;;5.10;;
10845;SDS011;5476;51.540;7.186;2023-10-08T00:35:31;6.10;;;4.32;;
10845;SDS011;5476;51.540;7.186;2023-10-08T00:37:57;10.98;;;5.05;;
10845;SDS011;5476;51.540;7.186;2023-10-08T00:40:25;13.38;;;5.00;;
10845;SDS011;5476;51.540;7.186;2023-10-08T00:43:05;7.68;;;4.80;;
10845;SDS011;5476;51.540;7.186;2023-10-08T00:45:35;11.73;;;5.10;;
10845;SDS011;5476;51.540;7.186;2023-10-08T00:48:08;8.75;;;5.10;;
10845;SDS011;5476;51.540;7.186;2023-10-08T00:50:40;8.13;;;5.40;;
10845;SDS011;5476;51.540;7.186;2023-10-08T00:53:08;7.53;;;4.82;;
10845;SDS011;5476;51.540;7.186;2023-10-08T00:55:47;10.82;;;5.10;;
10845;SDS011;5476;51.540;7.186;2023-10-08T00:58:19;9.43;;;5.35;;
10845;SDS011;5476;51.540;7.186;2023-10-08T01:00:51;8.80;;;5.20;;
10845;SDS011;5476;51.540;7.186;2023-10-08T01:03:24;9.30;;;4.95;;
10845;SDS011;5476;51.540;7.186;2023-10-08T01:05:52;7.95;;;4.90;;
10845;SDS011;5476;51.540;7.186;2023-10-08T01:08:20;9.00;;;4.78;;
10845;SDS011;5476;51.540;7.186;2023-10-08T01:13:56;12.07;;;5.03;;
10845;SDS011;5476;51.540;7.186;2023-10-08T01:16:24;9.30;;;5.18;;
10845;SDS011;5476;51.540;7.186;2023-10-08T01:18:52;7.35;;;4.60;;
10845;SDS011;5476;51.540;7.186;2023-10-08T01:21:20;8.90;;;4.88;;
10845;SDS011;5476;51.540;7.186;2023-10-08T01:24:00;7.97;;;4.95;;
10845;SDS011;5476;51.540;7.186;2023-10-08T01:26:31;9.50;;;5.15;;
10845;SDS011;5476;51.540;7.186;2023-10-08T01:28:58;7.43;;;4.93;;
10845;SDS011;5476;51.540;7.186;2023-10-08T01:31:28;10.20;;;5.13;;
10845;SDS011;5476;51.540;7.186;2023-10-08T01:33:57;7.70;;;4.50;;
10845;SDS011;5476;51.540;7.186;2023-10-08T01:36:24;9.85;;;5.07;;
10845;SDS011;5476;51.540;7.186;2023-10-08T01:38:51;9.10;;;4.63;;
10845;SDS011;5476;51.540;7.186;2023-10-08T01:41:21;11.02;;;5.32;;
10845;SDS011;5476;51.540;7.186;2023-10-08T01:43:55;8.80;;;5.30;;
10845;SDS011;5476;51.540;7.186;2023-10-08T01:46:22;8.18;;;4.95;;
10845;SDS011;5476;51.540;7.186;2023-10-08T01:48:51;7.03;;;4.80;;
10845;SDS011;5476;51.540;7.186;2023-10-08T01:51:25;8.15;;;5.38;;
10845;SDS011;5476;51.540;7.186;2023-10-08T01:54:01;10.27;;;4.75;;
10845;SDS011;5476;51.540;7.186;2023-10-08T01:56:36;8.98;;;5.30;;
10845;SDS011;5476;51.540;7.186;2023-10-08T01:59:03;9.55;;;5.38;;
10845;SDS011;5476;51.540;7.186;2023-10-08T02:01:31;10.77;;;5.35;;
10845;SDS011;5476;51.540;7.186;2023-10-08T02:03:58;9.77;;;5.32;;
10845;SDS011;5476;51.540;7.186;2023-10-08T02:06:24;9.82;;;5.30;;
10845;SDS011;5476;51.540;7.186;2023-10-08T02:08:51;8.75;;;5.47;;
10845;SDS011;5476;51.540;7.186;2023-10-08T02:11:18;9.25;;;5.18;;
10845;SDS011;5476;51.540;7.186;2023-10-08T02:13:48;9.70;;;5.22;;
10845;SDS011;5476;51.540;7.186;2023-10-08T02:16:17;7.88;;;5.35;;
10845;SDS011;5476;51.540;7.186;2023-10-08T02:18:44;11.43;;;5.40;;
10845;SDS011;5476;51.540;7.186;2023-10-08T02:21:11;12.88;;;5.40;;
10845;SDS011;5476;51.540;7.186;2023-10-08T02:23:39;9.18;;;5.10;;
10845;SDS011;5476;51.540;7.186;2023-10-08T02:26:08;10.23;;;5.40;;
10845;SDS011;5476;51.540;7.186;2023-10-08T02:28:35;11.88;;;5.45;;
10845;SDS011;5476;51.540;7.186;2023-10-08T02:31:05;8.77;;;5.07;;
10845;SDS011;5476;51.540;7.186;2023-10-08T02:33:33;9.68;;;5.13;;
10845;SDS011;5476;51.540;7.186;2023-10-08T02:36:02;8.18;;;5.10;;
10845;SDS011;5476;51.540;7.186;2023-10-08T02:38:30;8.55;;;4.75;;
10845;SDS011;5476;51.540;7.186;2023-10-08T02:41:03;8.73;;;5.20;;
10845;SDS011;5476;51.540;7.186;2023-10-08T02:43:31;10.52;;;4.82;;
10845;SDS011;5476;51.540;7.186;2023-10-08T02:45:59;9.60;;;5.53;;
10845;SDS011;5476;51.540;7.186;2023-10-08T02:48:27;10.65;;;4.90;;
10845;SDS011;5476;51.540;7.186;2023-10-08T02:50:54;9.70;;;4.80;;
10845;SDS011;5476;51.540;7.186;2023-10-08T02:53:32;9.10;;;4.72;;
10845;SDS011;5476;51.540;7.186;2023-10-08T02:55:59;9.80;;;5.15;;
10845;SDS011;5476;51.540;7.186;2023-10-08T02:58:25;12.57;;;5.05;;
10845;SDS011;5476;51.540;7.186;2023-10-08T03:00:53;9.07;;;5.22;;
10845;SDS011;5476;51.540;7.186;2023-10-08T03:03:19;9.27;;;4.82;;
10845;SDS011;5476;51.540;7.186;2023-10-08T03:05:51;9.75;;;5.07;;
10845;SDS011;5476;51.540;7.186;2023-10-08T03:08:21;8.40;;;4.70;;
10845;SDS011;5476;51.540;7.186;2023-10-08T03:10:49;8.15;;;4.75;;
10845;SDS011;5476;51.540;7.186;2023-10-08T03:13:20;12.55;;;5.03;;
10845;SDS011;5476;51.540;7.186;2023-10-08T03:15:47;10.20;;;5.03;;
10845;SDS011;5476;51.540;7.186;2023-10-08T03:18:33;11.38;;;5.38;;
10845;SDS011;5476;51.540;7.186;2023-10-08T03:21:03;9.05;;;5.45;;
10845;SDS011;5476;51.540;7.186;2023-10-08T03:23:45;10.05;;;5.75;;
10845;SDS011;5476;51.540;7.186;2023-10-08T03:26:13;13.05;;;6.22;;
10845;SDS011;5476;51.540;7.186;2023-10-08T03:28:59;13.88;;;5.80;;
10845;SDS011;5476;51.540;7.186;2023-10-08T03:31:30;11.38;;;5.70;;
10845;SDS011;5476;51.540;7.186;2023-10-08T03:34:15;14.40;;;5.80;;
10845;SDS011;5476;51.540;7.186;2023-10-08T03:36:45;8.13;;;4.90;;
10845;SDS011;5476;51.540;7.186;2023-10-08T03:39:15;11.20;;;5.90;;
10845;SDS011;5476;51.540;7.186;2023-10-08T03:41:44;12.00;;;5.90;;
10845;SDS011;5476;51.540;7.186;2023-10-08T03:44:24;11.05;;;5.35;;
10845;SDS011;5476;51.540;7.186;2023-10-08T03:46:54;10.90;;;5.72;;
10845;SDS011;5476;51.540;7.186;2023-10-08T03:49:22;9.68;;;4.85;;
10845;SDS011;5476;51.540;7.186;2023-10-08T03:51:57;11.38;;;5.00;;
10845;SDS011;5476;51.540;7.186;2023-10-08T03:54:25;11.27;;;5.45;;
10845;SDS011;5476;51.540;7.186;2023-10-08T03:57:00;9.40;;;5.03;;
10845;SDS011;5476;51.540;7.186;2023-10-08T03:59:31;10.63;;;5.25;;
10845;SDS011;5476;51.540;7.186;2023-10-08T04:01:59;11.40;;;5.82;;
10845;SDS011;5476;51.540;7.186;2023-10-08T04:04:39;12.05;;;5.38;;
10845;SDS011;5476;51.540;7.186;2023-10-08T04:07:17;10.18;;;5.78;;
10845;SDS011;5476;51.540;7.186;2023-10-08T04:09:53;9.88;;;5.55;;
10845;SDS011;5476;51.540;7.186;2023-10-08T04:12:41;10.68;;;5.28;;
10845;SDS011;5476;51.540;7.186;2023-10-08T04:15:09;10.45;;;5.50;;
10845;SDS011;5476;51.540;7.186;2023-10-08T04:17:37;9.77;;;5.53;;
10845;SDS011;5476;51.540;7.186;2023-10-08T04:20:09;11.05;;;5.45;;
10845;SDS011;5476;51.540;7.186;2023-10-08T04:22:57;8.15;;;5.00;;
10845;SDS011;5476;51.540;7.186;2023-10-08T04:25:25;12.02;;;5.55;;
10845;SDS011;5476;51.540;7.186;2023-10-08T04:27:53;9.35;;;5.45;;
10845;SDS011;5476;51.540;7.186;2023-10-08T04:30:23;10.48;;;5.40;;
10845;SDS011;5476;51.540;7.186;2023-10-08T04:32:57;11.45;;;5.22;;
10845;SDS011;5476;51.540;7.186;2023-10-08T04:35:31;11.80;;;5.35;;
10845;SDS011;5476;51.540;7.186;2023-10-08T04:38:03;10.23;;;5.30;;
10845;SDS011;5476;51.540;7.186;2023-10-08T04:40:30;11.55;;;5.38;;
10845;SDS011;5476;51.540;7.186;2023-10-08T04:43:04;10.68;;;5.20;;
10845;SDS011;5476;51.540;7.186;2023-10-08T04:45:31;11.52;;;5.88;;
10845;SDS011;5476;51.540;7.186;2023-10-08T04:47:59;11.52;;;5.78;;
10845;SDS011;5476;51.540;7.186;2023-10-08T04:50:26;10.18;;;5.57;;
10845;SDS011;5476;51.540;7.186;2023-10-08T04:52:55;16.20;;;5.72;;
10845;SDS011;5476;51.540;7.186;2023-10-08T04:55:25;9.25;;;5.32;;
10845;SDS011;5476;51.540;7.186;2023-10-08T04:57:54;12.70;;;5.60;;
10845;SDS011;5476;51.540;7.186;2023-10-08T05:00:22;11.30;;;5.45;;
10845;SDS011;5476;51.540;7.186;2023-10-08T05:03:07;10.70;;;5.93;;
10845;SDS011;5476;51.540;7.186;2023-10-08T05:05:39;12.52;;;5.53;;
10845;SDS011;5476;51.540;7.186;2023-10-08T05:08:20;12.00;;;6.00;;
10845;SDS011;5476;51.540;7.186;2023-10-08T05:10:55;14.98;;;6.05;;
10845;SDS011;5476;51.540;7.186;2023-10-08T05:13:39;12.02;;;5.93;;
10845;SDS011;5476;51.540;7.186;2023-10-08T05:16:20;10.07;;;5.82;;
10845;SDS011;5476;51.540;7.186;2023-10-08T05:19:01;10.02;;;4.75;;
10845;SDS011;5476;51.540;7.186;2023-10-08T05:21:50;11.10;;;5.82;;
10845;SDS011;5476;51.540;7.186;2023-10-08T05:24:27;8.07;;;5.20;;
10845;SDS011;5476;51.540;7.186;2023-10-08T05:27:04;12.93;;;6.28;;
10845;SDS011;5476;51.540;7.186;2023-10-08T05:29:49;10.10;;;5.82;;
10845;SDS011;5476;51.540;7.186;2023-10-08T05:32:36;11.90;;;6.50;;
10845;SDS011;5476;51.540;7.186;2023-10-08T05:35:09;12.63;;;5.97;;
10845;SDS011;5476;51.540;7.186;2023-10-08T05:37:53;13.43;;;6.55;;
10845;SDS011;5476;51.540;7.186;2023-10-08T05:40:38;11.68;;;5.75;;
10845;SDS011;5476;51.540;7.186;2023-10-08T05:43:31;11.93;;;5.53;;
10845;SDS011;5476;51.540;7.186;2023-10-08T05:46:30;10.65;;;6.28;;
10845;SDS011;5476;51.540;7.186;2023-10-08T05:49:16;14.10;;;6.18;;
10845;SDS011;5476;51.540;7.186;2023-10-08T05:52:03;12.20;;;5.90;;
10845;SDS011;5476;51.540;7.186;2023-10-08T05:54:48;13.35;;;6.07;;
10845;SDS011;5476;51.540;7.186;2023-10-08T05:57:40;14.25;;;6.63;;
10845;SDS011;5476;51.540;7.186;2023-10-08T06:00:13;10.85;;;5.95;;
10845;SDS011;5476;51.540;7.186;2023-10-08T06:02:55;10.80;;;5.32;;
10845;SDS011;5476;51.540;7.186;2023-10-08T06:05:34;12.98;;;5.80;;
10845;SDS011;5476;51.540;7.186;2023-10-08T06:11:14;19.15;;;6.47;;
10845;SDS011;5476;51.540;7.186;2023-10-08T06:13:53;13.82;;;6.13;;
10845;SDS011;5476;51.540;7.186;2023-10-08T06:16:26;12.90;;;6.60;;
10845;SDS011;5476;51.540;7.186;2023-10-08T06:19:10;11.98;;;6.13;;
10845;SDS011;5476;51.540;7.186;2023-10-08T06:21:38;15.52;;;6.22;;
10845;SDS011;5476;51.540;7.186;2023-10-08T06:24:05;13.80;;;6.57;;
10845;SDS011;5476;51.540;7.186;2023-10-08T06:26:35;12.68;;;7.03;;
10845;SDS011;5476;51.540;7.186;2023-10-08T06:29:07;16.65;;;7.07;;
10845;SDS011;5476;51.540;7.186;2023-10-08T06:31:45;12.80;;;7.10;;
10845;SDS011;5476;51.540;7.186;2023-10-08T06:34:16;15.52;;;7.70;;
10845;SDS011;5476;51.540;7.186;2023-10-08T06:36:47;13.60;;;6.85;;
10845;SDS011;5476;51.540;7.186;2023-10-08T06:39:15;13.52;;;6.50;;
10845;SDS011;5476;51.540;7.186;2023-10-08T06:41:44;15.68;;;6.95;;
10845;SDS011;5476;51.540;7.186;2023-10-08T06:44:11;13.98;;;6.78;;
10845;SDS011;5476;51.540;7.186;2023-10-08T06:46:40;16.50;;;6.88;;
10845;SDS011;5476;51.540;7.186;2023-10-08T06:49:09;15.48;;;6.88;;
10845;SDS011;5476;51.540;7.186;2023-10-08T06:51:38;14.30;;;6.50;;
10845;SDS011;5476;51.540;7.186;2023-10-08T06:54:07;13.25;;;6.22;;
10845;SDS011;5476;51.540;7.186;2023-10-08T06:56:35;17.45;;;6.35;;
10845;SDS011;5476;51.540;7.186;2023-10-08T06:59:03;15.75;;;6.43;;
10845;SDS011;5476;51.540;7.186;2023-10-08T07:01:34;15.80;;;7.35;;
10845;SDS011;5476;51.540;7.186;2023-10-08T07:04:05;14.50;;;6.70;;
10845;SDS011;5476;51.540;7.186;2023-10-08T07:06:38;12.57;;;7.30;;
10845;SDS011;5476;51.540;7.186;2023-10-08T07:09:05;14.48;;;7.75;;
10845;SDS011;5476;51.540;7.186;2023-10-08T07:11:47;17.38;;;7.55;;
10845;SDS011;5476;51.540;7.186;2023-10-08T07:14:14;16.77;;;7.00;;
10845;SDS011;5476;51.540;7.186;2023-10-08T07:16:43;14.48;;;6.68;;
10845;SDS011;5476;51.540;7.186;2023-10-08T07:19:12;16.80;;;6.65;;
10845;SDS011;5476;51.540;7.186;2023-10-08T07:21:45;10.57;;;7.45;;
10845;SDS011;5476;51.540;7.186;2023-10-08T07:24:13;9.73;;;7.10;;
10845;SDS011;5476;51.540;7.186;2023-10-08T07:26:47;7.43;;;6.20;;
10845;SDS011;5476;51.540;7.186;2023-10-08T07:29:15;7.80;;;6.22;;
10845;SDS011;5476;51.540;7.186;2023-10-08T07:31:51;4.70;;;4.30;;
10845;SDS011;5476;51.540;7.186;2023-10-08T07:34:18;5.55;;;3.67;;
10845;SDS011;5476;51.540;7.186;2023-10-08T07:36:53;6.03;;;4.10;;
10845;SDS011;5476;51.540;7.186;2023-10-08T07:39:22;6.10;;;3.30;;
10845;SDS011;5476;51.540;7.186;2023-10-08T07:41:59;6.03;;;3.28;;
10845;SDS011;5476;51.540;7.186;2023-10-08T07:44:27;5.22;;;3.35;;
10845;SDS011;5476;51.540;7.186;2023-10-08T07:46:55;4.28;;;2.78;;
10845;SDS011;5476;51.540;7.186;2023-10-08T07:49:22;4.38;;;2.33;;
10845;SDS011;5476;51.540;7.186;2023-10-08T07:51:50;4.20;;;2.20;;
10845;SDS011;5476;51.540;7.186;2023-10-08T07:54:19;8.95;;;2.65;;
10845;SDS011;5476;51.540;7.186;2023-10-08T07:56:48;4.95;;;1.90;;
10845;SDS011;5476;51.540;7.186;2023-10-08T08:02:13;4.85;;;1.90;;
10845;SDS011;5476;51.540;7.186;2023-10-08T08:04:42;3.65;;;2.03;;
10845;SDS011;5476;51.540;7.186;2023-10-08T08:07:10;6.22;;;2.38;;
10845;SDS011;5476;51.540;7.186;2023-10-08T08:09:42;3.60;;;2.10;;
10845;SDS011;5476;51.540;7.186;2023-10-08T08:12:15;4.57;;;2.10;;
10845;SDS011;5476;51.540;7.186;2023-10-08T08:14:44;3.03;;;2.40;;
10845;SDS011;5476;51.540;7.186;2023-10-08T08:17:18;3.47;;;2.10;;
10845;SDS011;5476;51.540;7.186;2023-10-08T08:19:48;4.00;;;2.15;;
10845;SDS011;5476;51.540;7.186;2023-10-08T08:22:17;7.50;;;2.67;;
10845;SDS011;5476;51.540;7.186;2023-10-08T08:24:48;4.10;;;2.92;;
10845;SDS011;5476;51.540;7.186;2023-10-08T08:27:18;4.40;;;2.95;;
10845;SDS011;5476;51.540;7.186;2023-10-08T08:29:50;7.97;;;4.55;;
10845;SDS011;5476;51.540;7.186;2023-10-08T08:32:22;4.85;;;4.00;;
10845;SDS011;5476;51.540;7.186;2023-10-08T08:34:49;8.98;;;5.80;;
10845;SDS011;5476;51.540;7.186;2023-10-08T08:37:17;10.52;;;6.45;;
10845;SDS011;5476;51.540;7.186;2023-10-08T08:39:44;10.05;;;5.85;;
10845;SDS011;5476;51.540;7.186;2023-10-08T08:42:13;7.95;;;5.13;;
10845;SDS011;5476;51.540;7.186;2023-10-08T08:44:41;9.27;;;4.60;;
10845;SDS011;5476;51.540;7.186;2023-10-08T08:47:10;5.40;;;3.90;;
10845;SDS011;5476;51.540;7.186;2023-10-08T08:49:42;5.35;;;3.55;;
10845;SDS011;5476;51.540;7.186;2023-10-08T08:52:09;6.38;;;3.70;;
10845;SDS011;5476;51.540;7.186;2023-10-08T08:54:37;3.95;;;2.63;;
10845;SDS011;5476;51.540;7.186;2023-10-08T08:57:04;4.85;;;2.28;;
10845;SDS011;5476;51.540;7.186;2023-10-08T08:59:40;2.47;;;1.60;;
10845;SDS011;5476;51.540;7.186;2023-10-08T09:02:16;1.77;;;1.40;;
10845;SDS011;5476;51.540;7.186;2023-10-08T09:04:43;1.88;;;1.70;;
10845;SDS011;5476;51.540;7.186;2023-10-08T09:07:11;2.80;;;2.20;;
10845;SDS011;5476;51.540;7.186;2023-10-08T09:09:39;4.35;;;2.70;;
10845;SDS011;5476;51.540;7.186;2023-10-08T09:12:06;4.35;;;3.17;;
10845;SDS011;5476;51.540;7.186;2023-10-08T09:14:42;6.10;;;3.83;;
10845;SDS011;5476;51.540;7.186;2023-10-08T09:17:10;7.15;;;4.78;;
10845;SDS011;5476;51.540;7.186;2023-10-08T09:19:40;12.02;;;7.15;;
10845;SDS011;5476;51.540;7.186;2023-10-08T09:22:08;11.20;;;6.65;;
10845;SDS011;5476;51.540;7.186;2023-10-08T09:24:37;14.30;;;7.95;;
10845;SDS011;5476;51.540;7.186;2023-10-08T09:27:05;14.02;;;7.50;;
10845;SDS011;5476;51.540;7.186;2023-10-08T09:29:33;13.93;;;7.28;;
10845;SDS011;5476;51.540;7.186;2023-10-08T09:32:08;12.35;;;7.07;;
10845;SDS011;5476;51.540;7.186;2023-10-08T09:34:35;11.32;;;6.45;;
10845;SDS011;5476;51.540;7.186;2023-10-08T09:37:03;9.07;;;5.93;;
10845;SDS011;5476;51.540;7.186;2023-10-08T09:39:30;11.90;;;6.30;;
10845;SDS011;5476;51.540;7.186;2023-10-08T09:41:59;11.88;;;6.10;;
10845;SDS011;5476;51.540;7.186;2023-10-08T09:44:28;12.65;;;6.97;;
10845;SDS011;5476;51.540;7.186;2023-10-08T09:46:57;10.77;;;6.57;;
10845;SDS011;5476;51.540;7.186;2023-10-08T09:49:32;11.00;;;6.55;;
10845;SDS011;5476;51.540;7.186;2023-10-08T09:52:04;8.98;;;5.93;;
10845;SDS011;5476;51.540;7.186;2023-10-08T09:54:35;7.65;;;5.30;;
10845;SDS011;5476;51.540;7.186;2023-10-08T09:57:07;6.05;;;4.57;;
10845;SDS011;5476;51.540;7.186;2023-10-08T09:59:35;5.65;;;3.72;;
10845;SDS011;5476;51.540;7.186;2023-10-08T10:02:03;4.18;;;2.65;;
10845;SDS011;5476;51.540;7.186;2023-10-08T10:04:37;2.85;;;2.10;;
10845;SDS011;5476;51.540;7.186;2023-10-08T10:07:09;3.25;;;1.55;;
10845;SDS011;5476;51.540;7.186;2023-10-08T10:09:38;2.15;;;1.48;;
10845;SDS011;5476;51.540;7.186;2023-10-08T10:12:05;2.13;;;1.20;;
10845;SDS011;5476;51.540;7.186;2023-10-08T10:14:40;3.80;;;1.40;;
10845;SDS011;5476;51.540;7.186;2023-10-08T10:17:09;1.20;;;1.10;;
10845;SDS011;5476;51.540;7.186;2023-10-08T10:19:41;3.80;;;1.65;;
10845;SDS011;5476;51.540;7.186;2023-10-08T10:22:11;3.53;;;3.22;;
10845;SDS011;5476;51.540;7.186;2023-10-08T10:24:40;3.80;;;2.60;;
10845;SDS011;5476;51.540;7.186;2023-10-08T10:27:11;3.65;;;3.30;;
10845;SDS011;5476;51.540;7.186;2023-10-08T10:29:40;3.78;;;2.95;;
10845;SDS011;5476;51.540;7.186;2023-10-08T10:32:10;3.28;;;2.55;;
10845;SDS011;5476;51.540;7.186;2023-10-08T10:34:38;2.83;;;1.67;;
10845;SDS011;5476;51.540;7.186;2023-10-08T10:37:07;2.03;;;1.40;;
10845;SDS011;5476;51.540;7.186;2023-10-08T10:39:51;3.05;;;1.58;;
10845;SDS011;5476;51.540;7.186;2023-10-08T10:42:24;2.72;;;1.30;;
10845;SDS011;5476;51.540;7.186;2023-10-08T10:44:53;2.33;;;1.17;;
10845;SDS011;5476;51.540;7.186;2023-10-08T10:47:21;3.05;;;1.00;;
10845;SDS011;5476;51.540;7.186;2023-10-08T10:49:54;4.35;;;1.30;;
10845;SDS011;5476;51.540;7.186;2023-10-08T10:52:36;1.92;;;0.80;;
10845;SDS011;5476;51.540;7.186;2023-10-08T10:55:11;4.25;;;1.10;;
10845;SDS011;5476;51.540;7.186;2023-10-08T10:57:48;5.13;;;1.13;;
10845;SDS011;5476;51.540;7.186;2023-10-08T11:00:21;5.35;;;1.05;;
10845;SDS011;5476;51.540;7.186;2023-10-08T11:03:06;3.08;;;1.33;;
10845;SDS011;5476;51.540;7.186;2023-10-08T11:05:43;2.22;;;1.05;;
10845;SDS011;5476;51.540;7.186;2023-10-08T11:08:16;2.95;;;1.00;;
10845;SDS011;5476;51.540;7.186;2023-10-08T11:10:44;2.25;;;1.00;;
10845;SDS011;5476;51.540;7.186;2023-10-08T11:13:16;2.67;;;1.13;;
10845;SDS011;5476;51.540;7.186;2023-10-08T11:15:45;2.58;;;1.23;;
10845;SDS011;5476;51.540;7.186;2023-10-08T11:18:15;1.23;;;1.00;;
10845;SDS011;5476;51.540;7.186;2023-10-08T11:20:44;1.85;;;1.00;;
10845;SDS011;5476;51.540;7.186;2023-10-08T11:23:30;2.25;;;0.90;;
10845;SDS011;5476;51.540;7.186;2023-10-08T11:25:58;2.90;;;1.00;;
10845;SDS011;5476;51.540;7.186;2023-10-08T11:28:27;2.92;;;1.00;;
10845;SDS011;5476;51.540;7.186;2023-10-08T11:30:54;5.32;;;2.55;;
10845;SDS011;5476;51.540;7.186;2023-10-08T11:33:24;4.55;;;2.20;;
10845;SDS011;5476;51.540;7.186;2023-10-08T11:36:00;2.60;;;1.05;;
10845;SDS011;5476;51.540;7.186;2023-10-08T11:38:28;1.65;;;0.80;;
10845;SDS011;5476;51.540;7.186;2023-10-08T11:41:09;3.78;;;3.30;;
10845;SDS011;5476;51.540;7.186;2023-10-08T11:43:45;4.05;;;2.80;;
10845;SDS011;5476;51.540;7.186;2023-10-08T11:46:13;3.53;;;1.33;;
10845;SDS011;5476;51.540;7.186;2023-10-08T11:48:43;3.95;;;1.48;;
10845;SDS011;5476;51.540;7.186;2023-10-08T11:51:13;5.03;;;1.15;;
10845;SDS011;5476;51.540;7.186;2023-10-08T11:53:42;1.77;;;0.90;;
10845;SDS011;5476;51.540;7.186;2023-10-08T11:56:09;3.00;;;1.00;;
10845;SDS011;5476;51.540;7.186;2023-10-08T11:58:38;3.38;;;0.95;;
10845;SDS011;5476;51.540;7.186;2023-10-08T12:01:09;3.47;;;1.00;;
10845;SDS011;5476;51.540;7.186;2023-10-08T12:03:40;1.70;;;1.05;;
10845;SDS011;5476;51.540;7.186;2023-10-08T12:06:08;2.25;;;1.00;;
10845;SDS011;5476;51.540;7.186;2023-10-08T12:08:41;2.35;;;1.20;;
10845;SDS011;5476;51.540;7.186;2023-10-08T12:11:11;1.83;;;0.90;;
10845;SDS011;5476;51.540;7.186;2023-10-08T12:13:39;2.33;;;1.00;;
10845;SDS011;5476;51.540;7.186;2023-10-08T12:16:09;2.35;;;1.00;;
10845;SDS011;5476;51.540;7.186;2023-10-08T12:18:46;3.45;;;0.95;;
10845;SDS011;5476;51.540;7.186;2023-10-08T12:21:18;3.40;;;1.10;;
10845;SDS011;5476;51.540;7.186;2023-10-08T12:23:46;1.77;;;1.10;;
10845;SDS011;5476;51.540;7.186;2023-10-08T12:26:15;2.75;;;1.13;;
10845;SDS011;5476;51.540;7.186;2023-10-08T12:28:44;3.55;;;1.30;;
10845;SDS011;5476;51.540;7.186;2023-10-08T12:31:13;2.63;;;1.00;;
10845;SDS011;5476;51.540;7.186;2023-10-08T12:33:42;5.00;;;2.78;;
10845;SDS011;5476;51.540;7.186;2023-10-08T12:36:13;2.58;;;1.27;;
10845;SDS011;5476;51.540;7.186;2023-10-08T12:38:42;3.42;;;1.38;;
10845;SDS011;5476;51.540;7.186;2023-10-08T12:41:13;4.13;;;1.25;;
10845;SDS011;5476;51.540;7.186;2023-10-08T12:43:42;4.75;;;1.25;;
10845;SDS011;5476;51.540;7.186;2023-10-08T12:46:11;3.65;;;0.95;;
10845;SDS011;5476;51.540;7.186;2023-10-08T12:48:43;3.10;;;1.27;;
10845;SDS011;5476;51.540;7.186;2023-10-08T12:51:12;3.70;;;1.30;;
10845;SDS011;5476;51.540;7.186;2023-10-08T12:53:42;11.18;;;1.60;;
10845;SDS011;5476;51.540;7.186;2023-10-08T12:56:18;4.00;;;1.30;;
10845;SDS011;5476;51.540;7.186;2023-10-08T12:58:56;1.88;;;1.20;;
10845;SDS011;5476;51.540;7.186;2023-10-08T13:01:24;4.20;;;1.20;;
10845;SDS011;5476;51.540;7.186;2023-10-08T13:03:54;3.08;;;1.83;;
10845;SDS011;5476;51.540;7.186;2023-10-08T13:06:26;2.25;;;1.33;;
10845;SDS011;5476;51.540;7.186;2023-10-08T13:08:54;3.80;;;1.20;;
10845;SDS011;5476;51.540;7.186;2023-10-08T13:11:23;7.70;;;1.30;;
10845;SDS011;5476;51.540;7.186;2023-10-08T13:13:52;5.03;;;1.42;;
10845;SDS011;5476;51.540;7.186;2023-10-08T13:16:22;6.50;;;1.70;;
10845;SDS011;5476;51.540;7.186;2023-10-08T13:18:49;3.28;;;1.20;;
10845;SDS011;5476;51.540;7.186;2023-10-08T13:21:17;3.75;;;1.35;;
10845;SDS011;5476;51.540;7.186;2023-10-08T13:23:48;3.72;;;1.30;;
10845;SDS011;5476;51.540;7.186;2023-10-08T13:26:15;4.25;;;1.38;;
10845;SDS011;5476;51.540;7.186;2023-10-08T13:28:44;3.08;;;1.35;;
10845;SDS011;5476;51.540;7.186;2023-10-08T13:31:11;3.72;;;1.05;;
10845;SDS011;5476;51.540;7.186;2023-10-08T13:33:38;3.60;;;1.33;;
10845;SDS011;5476;51.540;7.186;2023-10-08T13:36:08;2.53;;;1.13;;
10845;SDS011;5476;51.540;7.186;2023-10-08T13:41:11;2.67;;;1.02;;
10845;SDS011;5476;51.540;7.186;2023-10-08T13:43:41;0.98;;;0.88;;
10845;SDS011;5476;51.540;7.186;2023-10-08T13:46:18;2.38;;;1.20;;
10845;SDS011;5476;51.540;7.186;2023-10-08T13:48:48;2.63;;;1.20;;
10845;SDS011;5476;51.540;7.186;2023-10-08T13:51:15;2.78;;;1.30;;
10845;SDS011;5476;51.540;7.186;2023-10-08T13:53:48;3.10;;;1.42;;
10845;SDS011;5476;51.540;7.186;2023-10-08T13:56:17;1.35;;;1.10;;
10845;SDS011;5476;51.540;7.186;2023-10-08T13:58:45;1.90;;;1.00;;
10845;SDS011;5476;51.540;7.186;2023-10-08T14:01:14;1.40;;;1.00;;
10845;SDS011;5476;51.540;7.186;2023-10-08T14:03:52;1.20;;;1.10;;
10845;SDS011;5476;51.540;7.186;2023-10-08T14:06:21;3.25;;;1.30;;
10845;SDS011;5476;51.540;7.186;2023-10-08T14:08:50;2.08;;;1.35;;
10845;SDS011;5476;51.540;7.186;2023-10-08T14:11:18;4.10;;;1.30;;
10845;SDS011;5476;51.540;7.186;2023-10-08T14:13:48;2.60;;;1.25;;
10845;SDS011;5476;51.540;7.186;2023-10-08T14:16:16;2.20;;;1.00;;
10845;SDS011;5476;51.540;7.186;2023-10-08T14:18:43;3.28;;;1.30;;
10845;SDS011;5476;51.540;7.186;2023-10-08T14:21:20;2.30;;;1.20;;
10845;SDS011;5476;51.540;7.186;2023-10-08T14:23:49;2.40;;;1.38;;
10845;SDS011;5476;51.540;7.186;2023-10-08T14:26:17;1.98;;;1.30;;
10845;SDS011;5476;51.540;7.186;2023-10-08T14:28:47;3.60;;;1.20;;
10845;SDS011;5476;51.540;7.186;2023-10-08T14:31:18;2.90;;;1.17;;
10845;SDS011;5476;51.540;7.186;2023-10-08T14:33:47;5.03;;;1.17;;
10845;SDS011;5476;51.540;7.186;2023-10-08T14:36:30;3.33;;;1.52;;
10845;SDS011;5476;51.540;7.186;2023-10-08T14:39:15;3.83;;;1.48;;
10845;SDS011;5476;51.540;7.186;2023-10-08T14:41:59;2.38;;;1.20;;
10845;SDS011;5476;51.540;7.186;2023-10-08T14:44:43;2.83;;;1.50;;
10845;SDS011;5476;51.540;7.186;2023-10-08T14:47:11;2.95;;;1.73;;
10845;SDS011;5476;51.540;7.186;2023-10-08T14:49:38;2.88;;;1.35;;
10845;SDS011;5476;51.540;7.186;2023-10-08T14:52:06;2.83;;;1.60;;
10845;SDS011;5476;51.540;7.186;2023-10-08T14:54:33;3.00;;;1.60;;
10845;SDS011;5476;51.540;7.186;2023-10-08T14:57:00;3.55;;;1.60;;
10845;SDS011;5476;51.540;7.186;2023-10-08T14:59:27;3.05;;;1.63;;
10845;SDS011;5476;51.540;7.186;2023-10-08T15:01:55;2.70;;;1.58;;
10845;SDS011;5476;51.540;7.186;2023-10-08T15:04:23;3.92;;;1.80;;
10845;SDS011;5476;51.540;7.186;2023-10-08T15:06:51;5.45;;;1.67;;
10845;SDS011;5476;51.540;7.186;2023-10-08T15:09:19;3.15;;;1.52;;
10845;SDS011;5476;51.540;7.186;2023-10-08T15:11:48;4.47;;;1.70;;
10845;SDS011;5476;51.540;7.186;2023-10-08T15:14:16;4.25;;;1.77;;
10845;SDS011;5476;51.540;7.186;2023-10-08T15:16:44;3.40;;;2.00;;
10845;SDS011;5476;51.540;7.186;2023-10-08T15:19:17;2.60;;;2.30;;
10845;SDS011;5476;51.540;7.186;2023-10-08T15:21:44;3.05;;;2.75;;
10845;SDS011;5476;51.540;7.186;2023-10-08T15:24:15;3.88;;;1.80;;
10845;SDS011;5476;51.540;7.186;2023-10-08T15:26:44;3.45;;;2.45;;
10845;SDS011;5476;51.540;7.186;2023-10-08T15:29:12;4.32;;;2.40;;
10845;SDS011;5476;51.540;7.186;2023-10-08T15:31:39;3.97;;;2.00;;
10845;SDS011;5476;51.540;7.186;2023-10-08T15:34:06;3.65;;;1.90;;